< < Back
Terminal Aerodrome Forecast


Current Version              Previous Versions:   1  2  3  4  5  6  7  8  9  

Terminal Aerodrome Forecast

098
FTUS42 KCAE 011138
TAFCAE
TAF
KCAE 011138Z 0112/0212 04006KT P6SM SCT120
     FM012300 VRB05KT P6SM SCT250=

Latest METAR

695
SAUS80 KWBC 011300 RRH
MTRCAE
METAR KCAE 011256Z 03009KT 10SM SCT130 28/16 A2995 RMK AO2 SLP138
T02780156


USA.gov is the U.S. government's official web portal to all federal, state and local government web resources and services.